Latest Weather Observations for Trepell

IDQ60801

Issued at 11:02 pm EST Wednesday 12 August 2020 (issued every 10 minutes, with the page automatically refreshed every 10 minutes)

About weather observations | Map of weather stations | Latest weather observations for QLD | Other Formats
Station Details ID: 037036 Name: TREPELL AIRPORT Lat: -21.84 Lon: 140.89 Height: 266.2 m
Data from the previous 72 hours. | See also: Recent months at Trepell
Date/Time
EST
Temp
°C
App
Temp
°C
Dew
Point
°C
Rel
Hum
%
Delta-T
°C
Wind Press
QNH
hPa
Press
MSL
hPa
Rain since
9am
mm
Dir  Spd
km/h
Gust
km/h
Spd
kts
Gust
kts
12/10:30pm 20.2 17.5 3.9 34 7.9 SSW 7 7 4 4 1014.7 1014.1 0.0
12/10:00pm 22.6 20.1 4.6 31 9.0 SSW 7 9 4 5 1014.7 1014.1 0.0
12/09:30pm 22.4 19.0 4.0 30 9.1 SW 11 15 6 8 1014.8 1014.2 0.0
12/09:00pm 22.1 18.5 2.8 28 9.3 NNW 11 15 6 8 1014.5 1013.9 0.0
12/08:30pm 23.8 20.9 2.6 25 10.3 WSW 7 9 4 5 1014.3 1013.7 0.0
12/08:00pm 24.7 21.0 2.2 23 10.9 WSW 11 11 6 6 1013.9 1013.2 0.0
12/07:30pm 25.6 21.9 2.3 22 11.4 WSW 11 13 6 7 1013.4 1012.7 0.0
12/07:00pm 26.7 22.5 1.9 20 12.1 W 13 15 7 8 1013.0 1012.3 0.0
12/06:30pm 27.8 23.2 1.3 18 12.9 W 15 19 8 10 1012.8 1012.1 0.0
12/06:00pm 29.7 24.1 1.2 16 14.0 W 20 24 11 13 1012.7 1012.0 0.0
12/05:30pm 30.4 24.0 0.9 15 14.5 WNW 24 32 13 17 1012.5 1011.8 0.0
12/05:00pm 31.3 25.6 0.6 14 15.1 W 20 30 11 16 1012.3 1011.6 0.0
12/04:30pm 31.5 25.9 -0.2 13 15.4 WNW 19 24 10 13 1012.3 1011.6 0.0
12/04:00pm 31.1 24.9 -0.5 13 15.3 W 22 33 12 18 1012.4 1011.7 0.0
12/03:30pm 31.4 24.8 -0.3 13 15.4 W 24 35 13 19 1012.6 1011.9 0.0
12/03:00pm 31.6 25.0 -0.1 13 15.5 W 24 37 13 20 1012.8 1012.1 0.0
12/02:30pm 31.4 25.6 -0.3 13 15.4 W 20 30 11 16 1013.2 1012.5 0.0
12/02:00pm 31.8 25.9 -1.1 12 15.8 WNW 20 33 11 18 1013.5 1012.8 0.0
12/01:30pm 30.9 24.9 -1.8 12 15.4 WNW 20 35 11 19 1014.1 1013.4 0.0
12/01:00pm 30.2 23.3 -2.3 12 15.1 W 24 33 13 18 1014.5 1013.9 0.0
12/12:30pm 29.3 21.7 -1.9 13 14.5 W 28 37 15 20 1015.0 1014.4 0.0
12/12:00pm 29.2 22.0 -2.0 13 14.5 W 26 35 14 19 1015.4 1014.8 0.0
12/11:30am 28.5 22.5 -1.6 14 14.0 W 20 32 11 17 1015.8 1015.2 0.0
12/11:00am 27.1 20.6 -2.7 14 13.4 WSW 22 30 12 16 1016.3 1015.6 0.0
12/10:30am 26.1 19.7 -1.7 16 12.7 WSW 22 32 12 17 1016.5 1015.8 0.0
12/10:00am 26.3 20.4 -0.7 17 12.5 WSW 20 33 11 18 1016.4 1015.7 0.0
12/09:30am 23.8 18.9 -0.5 20 11.1 NE 15 17 8 9 1015.5 1014.9 0.0
12/09:00am 22.1 17.6 -0.6 22 10.2 NNE 13 17 7 9 1015.3 1014.7 0.0
12/08:30am 19.7 15.1 -0.9 25 9.0 NNE 13 15 7 8 1015.1 1014.5 0.0
12/08:00am 17.4 12.8 -1.3 28 8.0 NNE 13 15 7 8 1015.0 1014.4 0.0
12/07:30am 14.5 9.8 -2.0 32 6.7 NNE 13 19 7 10 1014.8 1014.2 0.0
12/07:00am 12.8 8.1 -1.9 36 5.9 NNE 13 17 7 9 1014.5 1013.9 0.0
12/06:30am 14.0 8.9 -2.0 33 6.5 NNE 15 17 8 9 1014.4 1013.8 0.0
12/06:00am 14.7 8.9 -1.8 32 6.8 NNE 19 20 10 11 1013.9 1013.2 0.0
12/05:30am 14.8 9.4 -1.3 33 6.7 NNE 17 20 9 11 1013.7 1013.0 0.0
12/05:00am 13.8 8.8 -1.0 36 6.1 NNE 15 17 8 9 1013.5 1012.8 0.0
12/04:30am 14.0 9.4 -0.8 36 6.2 NNE 13 15 7 8 1013.4 1012.7 0.0
12/04:00am 14.5 10.4 -0.4 36 6.3 N 11 13 6 7 1013.5 1012.8 0.0
12/03:30am 12.8 8.0 0.2 42 5.3 NNE 15 15 8 8 1013.5 1012.8 0.0
12/03:00am 12.6 8.5 -0.3 41 5.4 NE 11 13 6 7 1013.7 1013.0 0.0
12/02:30am 12.6 8.1 -0.3 41 5.4 NNE 13 15 7 8 1014.0 1013.3 0.0
12/02:00am 14.3 9.4 -0.2 37 6.1 N 15 17 8 9 1014.2 1013.6 0.0
12/01:30am 13.4 9.7 0.1 40 5.6 NNE 9 11 5 6 1014.4 1013.8 0.0
12/01:00am 14.9 11.2 0.0 36 6.4 N 9 9 5 5 1014.5 1013.9 0.0
12/12:30am 15.1 11.7 -0.6 34 6.6 NNE 7 9 4 5 1014.6 1014.0 0.0
12/12:00am 15.5 11.3 -0.7 33 6.9 NNE 11 11 6 6 1014.6 1014.0 0.0
 
Date/Time
EST
Temp
°C
App
Temp
°C
Dew
Point
°C
Rel
Hum
%
Delta-T
°C
Wind Press
QNH
hPa
Press
MSL
hPa
Rain since
9am
mm
Dir  Spd
km/h
Gust
km/h
Spd
kts
Gust
kts
11/11:30pm 16.9 12.7 -0.8 30 7.6 NNE 11 13 6 7 1014.5 1013.9 0.0
11/11:00pm 16.3 11.7 -0.8 31 7.3 NNE 13 15 7 8 1014.5 1013.9 0.0
11/10:30pm 16.7 12.4 -1.4 29 7.7 NNE 11 13 6 7 1014.3 1013.7 0.0
11/10:00pm 17.1 12.5 -1.1 29 7.8 NNE 13 13 7 7 1014.3 1013.7 0.0
11/09:30pm 17.4 12.8 -1.3 28 8.0 NNE 13 15 7 8 1014.3 1013.7 0.0
11/09:00pm 18.4 13.4 -0.9 27 8.4 NNE 15 17 8 9 1014.2 1013.6 0.0
11/08:30pm 18.2 13.3 -0.6 28 8.2 NNE 15 17 8 9 1014.2 1013.6 0.0
11/08:00pm 19.3 14.7 -0.7 26 8.8 NNE 13 17 7 9 1014.0 1013.3 0.0
11/07:30pm 19.9 16.1 -0.7 25 9.1 NNE 9 11 5 6 1013.7 1013.0 0.0
11/07:00pm 21.5 17.7 -1.1 22 10.0 NNE 9 11 5 6 1013.3 1012.6 0.0
11/06:30pm 22.7 19.1 -2.1 19 10.9 NNE 7 13 4 7 1013.0 1012.3 0.0
11/06:00pm 25.2 21.1 -3.2 15 12.5 NNE 9 13 5 7 1012.6 1011.9 0.0
11/05:30pm 27.5 22.5 -4.4 12 14.0 NNW 13 17 7 9 1012.4 1011.7 0.0
11/05:00pm 27.3 23.1 -3.5 13 13.7 NNW 9 15 5 8 1012.3 1011.6 0.0
11/04:30pm 27.1 22.2 -3.7 13 13.6 N 13 19 7 10 1012.3 1011.6 0.0
11/04:00pm 27.2 22.7 -3.6 13 13.7 NW 11 20 6 11 1012.4 1011.7 0.0
11/03:30pm 26.3 21.5 -2.4 15 12.9 NW 13 20 7 11 1012.6 1011.9 0.0
11/03:00pm 26.1 21.8 -1.7 16 12.7 NNW 11 17 6 9 1013.1 1012.4 0.0
11/02:30pm 25.4 20.9 -0.6 18 12.0 NNW 13 19 7 10 1013.6 1012.9 0.0
11/02:00pm 24.7 20.5 -1.2 18 11.8 NNE 11 20 6 11 1014.1 1013.4 0.0
11/01:30pm 23.6 19.1 -0.6 20 11.0 NNW 13 20 7 11 1014.7 1014.1 0.0
11/01:00pm 23.4 18.9 -0.1 21 10.8 NNW 13 26 7 14 1015.5 1014.9 0.0
11/12:30pm 22.7 18.2 -0.1 22 10.4 NNE 13 22 7 12 1016.2 1015.5 0.0
11/12:00pm 22.1 16.7 1.2 25 9.7 NNE 19 28 10 15 1016.8 1016.1 0.0
11/11:30am 21.4 16.1 1.7 27 9.2 NNE 19 26 10 14 1017.5 1016.9 0.0
11/11:00am 21.0 16.1 1.8 28 9.0 NNE 17 28 9 15 1018.0 1017.4 0.0
11/10:30am 19.9 15.0 2.3 31 8.2 NNE 17 22 9 12 1018.4 1017.8 0.0
11/10:00am 18.2 14.1 2.1 34 7.4 NNE 13 19 7 10 1018.4 1017.8 0.0
11/09:30am 17.2 13.1 2.0 36 6.9 NE 13 17 7 9 1018.7 1018.1 0.0
11/09:00am 15.6 11.9 2.1 40 6.1 NE 11 17 6 9 1018.8 1018.2 0.0
11/08:30am 13.4 11.2 3.2 50 4.6 NNW 4 7 2 4 1018.8 1018.2 0.0
11/08:00am 11.6 8.8 3.1 56 3.8 N 7 9 4 5 1018.3 1017.7 0.0
11/07:30am 9.4 6.5 2.7 63 2.9 N 7 9 4 5 1017.7 1017.1 0.0
11/07:00am 9.0 5.7 2.3 63 2.9 N 9 11 5 6 1017.3 1016.6 0.0
11/06:30am 8.5 5.6 2.5 66 2.6 N 7 9 4 5 1017.1 1016.4 0.0
11/06:00am 8.3 6.7 2.3 66 2.5 CALM 0 6 0 3 1016.8 1016.1 0.0
11/05:30am 8.3 6.8 2.8 68 2.4 CALM 0 0 0 0 1016.2 1015.5 0.0
11/05:00am 7.9 6.4 3.0 71 2.1 CALM 0 0 0 0 1016.2 1015.5 0.0
11/04:30am 8.2 6.5 2.0 65 2.6 CALM 0 6 0 3 1016.2 1015.5 0.0
11/04:00am 9.0 6.1 2.8 65 2.7 NNW 7 7 4 4 1016.2 1015.5 0.0
11/03:30am 8.7 5.8 2.5 65 2.7 NW 7 9 4 5 1016.2 1015.5 0.0
11/03:00am 9.2 6.3 2.5 63 2.9 NNW 7 9 4 5 1016.2 1015.5 0.0
11/02:30am 9.4 7.8 2.7 63 2.9 CALM 0 0 0 0 1016.6 1015.9 0.0
11/02:00am 9.7 8.2 3.0 63 2.9 CALM 0 0 0 0 1017.0 1016.3 0.0
11/01:30am 10.1 8.5 2.5 59 3.3 CALM 0 0 0 0 1017.2 1016.5 0.0
11/01:00am 11.1 9.6 2.9 57 3.6 CALM 0 0 0 0 1017.4 1016.7 0.0
11/12:30am 10.6 7.9 2.4 57 3.6 W 6 7 3 4 1017.5 1016.9 0.0
11/12:00am 10.9 7.5 2.0 54 3.8 SW 9 11 5 6 1017.6 1017.0 0.0
 
Date/Time
EST
Temp
°C
App
Temp
°C
Dew
Point
°C
Rel
Hum
%
Delta-T
°C
Wind Press
QNH
hPa
Press
MSL
hPa
Rain since
9am
mm
Dir  Spd
km/h
Gust
km/h
Spd
kts
Gust
kts
10/11:30pm 10.9 7.6 2.2 55 3.8 SSW 9 11 5 6 1017.4 1016.7 0.0
10/11:00pm 11.4 8.6 2.2 53 4.0 SSW 6 11 3 6 1017.6 1017.0 0.0
10/10:30pm 13.0 11.3 1.7 46 4.9 CALM 0 0 0 0 1017.7 1017.1 0.0
10/10:00pm 14.1 12.0 2.0 44 5.4 ENE 2 6 1 3 1017.7 1017.1 0.0
10/09:30pm 14.5 11.1 2.1 43 5.5 ESE 9 13 5 7 1017.8 1017.2 0.0
10/09:00pm 14.8 11.0 2.0 42 5.7 ESE 11 13 6 7 1017.8 1017.2 0.0
10/08:30pm 15.0 11.5 1.5 40 6.0 ESE 9 9 5 5 1017.6 1017.0 0.0
10/08:00pm 15.8 12.4 1.9 39 6.2 ESE 9 11 5 6 1017.4 1016.7 0.0
10/07:30pm 16.5 13.2 2.2 38 6.5 SE 9 11 5 6 1017.2 1016.5 0.0
10/07:00pm 17.9 14.7 1.0 32 7.6 SSE 7 9 4 5 1017.0 1016.3 0.0
10/06:30pm 18.9 15.7 1.0 30 8.1 SSE 7 7 4 4 1017.0 1016.3 0.0
10/06:00pm 20.4 17.3 1.3 28 8.8 SSW 7 9 4 5 1017.0 1016.3 0.0
10/05:30pm 21.0 17.9 1.3 27 9.1 S 7 13 4 7 1016.8 1016.1 0.0
10/05:00pm 21.1 17.5 0.9 26 9.3 SW 9 15 5 8 1016.7 1016.0 0.0
10/04:30pm 21.1 16.8 0.9 26 9.3 S 13 20 7 11 1016.6 1015.9 0.0
10/04:00pm 21.0 17.9 1.3 27 9.1 SSE 7 19 4 10 1016.8 1016.1 0.0
10/03:30pm 20.8 17.4 1.6 28 8.9 SSW 9 17 5 9 1016.9 1016.2 0.0
10/03:00pm 20.6 16.8 1.5 28 8.8 SSW 11 19 6 10 1017.1 1016.4 0.0
10/02:30pm 20.5 16.6 1.4 28 8.8 S 11 15 6 8 1017.4 1016.7 0.0
10/02:00pm 19.8 16.8 1.7 30 8.4 SW 7 13 4 7 1017.9 1017.3 0.0
10/01:30pm 20.0 15.1 1.9 30 8.4 S 17 22 9 12 1018.5 1017.9 0.0
10/01:00pm 19.1 15.0 2.5 33 7.7 SSE 13 22 7 12 1018.9 1018.3 0.0
10/12:30pm 18.2 14.1 2.1 34 7.4 SSE 13 20 7 11 1019.5 1018.9 0.0
10/12:00pm 18.1 13.1 1.6 33 7.5 S 17 24 9 13 1019.9 1019.2 0.0
10/11:30am 17.6 13.2 2.8 37 6.9 SSE 15 28 8 15 1020.3 1019.6 0.0
10/11:00am 16.6 12.8 3.7 42 6.0 SSE 13 20 7 11 1020.7 1020.0 0.0
10/10:30am 16.1 11.6 4.2 45 5.6 SE 17 26 9 14 1021.0 1020.4 0.0
10/10:00am 15.6 10.8 4.9 49 5.1 SSE 19 26 10 14 1021.2 1020.6 0.0
10/09:30am 13.4 9.7 4.3 54 4.2 SSE 13 19 7 10 1021.0 1020.4 0.0
10/09:00am 11.8 8.3 3.6 57 3.7 SSE 11 15 6 8 1020.7 1020.0 0.0
10/08:30am 10.0 7.0 2.1 58 3.4 S 7 11 4 6 1020.5 1019.8 0.0
10/08:00am 8.4 5.4 0.9 59 3.1 W 6 7 3 4 1020.6 1019.9 0.0
10/07:30am 6.5 3.5 0.6 66 2.4 W 6 7 3 4 1020.4 1019.7 0.0
10/07:00am 5.5 1.8 -0.1 67 2.2 SSW 9 11 5 6 1019.9 1019.2 0.0
10/06:30am 5.5 1.3 -0.8 64 2.4 SSW 11 13 6 7 1019.4 1018.8 0.0
10/06:00am 6.8 3.4 -0.4 60 2.8 SW 7 9 4 5 1019.3 1018.7 0.0
10/05:30am 6.2 2.0 -0.7 61 2.7 SW 11 11 6 6 1019.2 1018.6 0.0
10/05:00am 6.7 2.9 -1.0 58 3.0 SSW 9 11 5 6 1019.1 1018.5 0.0
10/04:30am 7.0 2.4 -0.7 58 3.0 SSW 13 15 7 8 1018.9 1018.3 0.0
10/04:00am 7.3 2.7 -0.9 56 3.2 SSW 13 13 7 7 1019.0 1018.4 0.0
10/03:30am 7.6 3.4 -0.6 56 3.2 SSW 11 13 6 7 1018.9 1018.3 0.0
10/03:00am 7.6 3.4 -0.8 55 3.3 SSW 11 13 6 7 1018.9 1018.3 0.0
10/02:30am 8.1 3.5 -0.9 53 3.5 SSW 13 13 7 7 1019.0 1018.4 0.0
10/02:00am 8.7 4.1 -1.1 50 3.8 SSW 13 15 7 8 1019.2 1018.6 0.0
10/01:30am 9.5 4.9 -0.9 48 4.1 SSW 13 17 7 9 1019.4 1018.8 0.0
10/01:00am 9.8 4.9 -0.7 48 4.2 SSW 15 17 8 9 1019.5 1018.9 0.0
10/12:30am 9.7 5.5 -0.8 48 4.2 SSW 11 15 6 8 1019.7 1019.1 0.0
10/12:00am 10.0 6.2 -0.5 48 4.2 SSW 9 13 5 7 1019.7 1019.1 0.0
 
Date/Time
EST
Temp
°C
App
Temp
°C
Dew
Point
°C
Rel
Hum
%
Delta-T
°C
Wind Press
QNH
hPa
Press
MSL
hPa
Rain since
9am
mm
Dir  Spd
km/h
Gust
km/h
Spd
kts
Gust
kts
09/11:30pm 10.7 6.6 -0.1 47 4.4 SW 11 13 6 7 1020.1 1019.4 0.0

Other formats

Comma delimited format used in spreadsheet applications
http://www.bom.gov.au/fwo/IDQ60801/IDQ60801.94338.axf

JavaScript Object Notation format (JSON) in row-major order
http://www.bom.gov.au/fwo/IDQ60801/IDQ60801.94338.json

Data quality

Most of these data are generated automatically and are frequently updated. Quality checks on data are not normally performed. It is possible for incorrect values to appear. Refer to information at About Latest Weather Observations and please check the disclaimer before using these data.